Archival Weather

Aeroparque Jorge Newbery

Buenos Aires, Argentina (SABE)

Report from: Thursday, February 22, 2024 12:00 PM -03
Current time: Monday, June 24, 2024 6:18 AM -03

Current weather – Weather history – Daily summaries
Weather forecast

Temperature27.0°C (80.6°F)
Heat index29.0°C (84.2°F)
Dew point21.0°C (69.8°F)
Winds 6 kts (3.1 m/s, 6.9 mph) Vrb
Winds variableWinds variable from North (350°) to Northeast (50°)
Visibility6.2 mi. (10 km)
Clouds Few clouds 2,500 ft. (762 m)
Altimeter29.74 in.Hg (1007 mB)
Relative humidity70 %
Density altitude1,930 ft. (588 m)
Remarks No significant changes expected in the next two hours
Flight conditions Visual Meteorological Conditions
Raw dataSABE 221500Z 02006KT 350V050 9999 FEW025 27/21 Q1007 NOSIG
An error has occurred. This application may no longer respond until reloaded. Reload 🗙